Time;durP1;ratioP1;P1;durP2;ratioP2;P2;SDS_P1;SDS_P2;PMS_P1;PMS_P2;Temp;Humidity;BMP_temperature;BMP_pressure;BME280_temperature;BME280_humidity;BME280_pressure;Samples;Min_cycle;Max_cycle;Signal;HPM_P1;HPM_P2
2023/06/18 00:00:19;;;;;;;10.07;7.45;;;18.80;69.10;;;;;;4948919;29;20321;-73
2023/06/18 05:01:14;;;;;;;9.03;7.23;;;17.70;77.30;;;;;;5960151;23;20035;31
2023/06/18 05:03:43;;;;;;;10.02;7.80;;;17.70;77.50;;;;;;4941335;29;20066;-73
2023/06/18 05:06:09;;;;;;;8.65;7.35;;;17.70;77.50;;;;;;4945868;29;20038;-74
2023/06/18 05:08:35;;;;;;;11.68;7.40;;;17.70;77.20;;;;;;4946361;29;20032;-72
2023/06/18 05:11:01;;;;;;;9.13;7.20;;;17.70;77.50;;;;;;4945894;29;20222;-74
2023/06/18 05:13:29;;;;;;;8.57;7.10;;;17.70;77.50;;;;;;4946596;29;20028;-72
2023/06/18 05:15:55;;;;;;;9.85;6.70;;;17.70;77.40;;;;;;4947737;29;20032;-74
2023/06/18 05:18:20;;;;;;;11.60;7.68;;;17.80;77.20;;;;;;4930190;29;20036;-72
2023/06/18 05:20:47;;;;;;;10.10;7.53;;;17.80;77.40;;;;;;4936319;29;20044;-72
2023/06/18 05:23:12;;;;;;;10.82;7.50;;;17.80;77.50;;;;;;4926677;29;20210;-71
2023/06/18 05:25:39;;;;;;;11.23;7.50;;;17.80;77.50;;;;;;4911396;29;20035;-72
2023/06/18 05:28:05;;;;;;;9.77;7.70;;;17.80;77.70;;;;;;4927392;29;20028;-73
2023/06/18 05:30:33;;;;;;;9.50;7.15;;;17.90;78.50;;;;;;4926983;29;20056;-71
2023/06/18 05:33:00;;;;;;;11.80;7.90;;;18.00;78.60;;;;;;4926787;29;20032;-73
2023/06/18 05:35:26;;;;;;;11.93;7.38;;;18.00;78.50;;;;;;4931258;29;20262;-73
2023/06/18 05:37:55;;;;;;;10.65;7.50;;;18.00;78.40;;;;;;4945898;29;20217;-72
2023/06/18 05:40:21;;;;;;;12.43;7.45;;;18.10;78.40;;;;;;4945130;29;20449;-71
2023/06/18 05:42:47;;;;;;;9.32;7.20;;;18.10;78.30;;;;;;4947160;29;20024;-74
2023/06/18 05:45:13;;;;;;;9.85;7.00;;;18.20;78.30;;;;;;4945285;29;20309;-72
2023/06/18 05:47:43;;;;;;;9.95;7.32;;;18.30;78.20;;;;;;4945868;29;20039;-71
2023/06/18 05:50:11;;;;;;;10.65;7.68;;;18.30;78.20;;;;;;4945226;29;20107;-73
2023/06/18 05:52:37;;;;;;;13.18;8.07;;;18.30;78.10;;;;;;4945834;29;20027;-74
2023/06/18 05:55:06;;;;;;;12.13;7.47;;;18.30;78.00;;;;;;4946375;29;20170;-74
2023/06/18 05:57:32;;;;;;;11.30;7.70;;;18.40;78.10;;;;;;4945401;29;20030;-72
2023/06/18 05:59:58;;;;;;;10.45;7.95;;;18.60;77.70;;;;;;4945432;29;20151;-72
2023/06/18 06:02:24;;;;;;;12.43;7.80;;;18.70;77.40;;;;;;4934308;29;20321;-71
2023/06/18 06:04:50;;;;;;;9.75;7.25;;;18.70;77.30;;;;;;4926537;29;20224;-70
2023/06/18 06:07:15;;;;;;;9.82;7.80;;;18.80;77.30;;;;;;4926469;29;20095;-71
2023/06/18 06:09:42;;;;;;;10.48;7.05;;;18.80;77.00;;;;;;4926321;29;20040;-71
2023/06/18 06:12:08;;;;;;;11.18;7.72;;;19.00;76.60;;;;;;4925541;29;20020;-70
2023/06/18 06:14:34;;;;;;;11.90;7.45;;;19.10;76.20;;;;;;4926127;29;20038;-71
2023/06/18 06:17:00;;;;;;;10.43;7.18;;;19.20;75.90;;;;;;4926087;29;20024;-70
2023/06/18 06:19:26;;;;;;;10.90;7.30;;;19.40;75.90;;;;;;4925557;29;20217;-71
2023/06/18 06:21:52;;;;;;;10.52;7.95;;;19.40;75.40;;;;;;4926180;29;20036;-71
2023/06/18 06:24:18;;;;;;;15.40;7.65;;;19.50;74.90;;;;;;4925553;29;20071;-70
2023/06/18 06:26:44;;;;;;;8.95;7.03;;;19.70;74.70;;;;;;4924291;29;20048;-71
2023/06/18 06:29:10;;;;;;;10.15;7.93;;;19.90;73.90;;;;;;4924884;29;20043;-71
2023/06/18 06:31:37;;;;;;;9.27;6.97;;;20.10;73.20;;;;;;4925554;29;20016;-70
2023/06/18 06:34:03;;;;;;;9.75;7.13;;;20.10;73.00;;;;;;4926732;29;20083;-71
2023/06/18 06:36:29;;;;;;;10.52;7.53;;;20.20;72.50;;;;;;4924827;29;20035;-74
2023/06/18 06:38:55;;;;;;;8.77;7.30;;;20.30;72.40;;;;;;4925954;29;20043;-72
2023/06/18 06:41:21;;;;;;;10.82;7.53;;;20.40;72.10;;;;;;4909040;29;20032;-73
2023/06/18 06:43:46;;;;;;;11.18;7.00;;;20.40;72.30;;;;;;4925466;29;20028;-70
2023/06/18 06:46:41;;;;;;;9.95;7.78;;;20.50;72.30;;;;;;4922329;29;20153;-73
2023/06/18 06:49:26;;;;;;;11.60;7.60;;;20.60;72.00;;;;;;4925899;29;20444;-72
2023/06/18 06:52:12;;;;;;;8.80;6.95;;;20.60;72.00;;;;;;4926067;29;20134;-71
2023/06/18 06:54:38;;;;;;;9.30;6.93;;;20.70;71.80;;;;;;4926489;29;20039;-70
2023/06/18 06:57:04;;;;;;;10.65;6.85;;;20.80;71.40;;;;;;4926255;29;20051;-70
2023/06/18 06:59:30;;;;;;;10.27;7.28;;;20.90;71.20;;;;;;4925095;29;20159;-71
2023/06/18 07:01:56;;;;;;;10.38;7.05;;;21.10;70.80;;;;;;4926089;29;20278;-72
2023/06/18 07:04:22;;;;;;;11.70;7.30;;;21.20;70.40;;;;;;4926212;29;20044;-72
2023/06/18 07:06:49;;;;;;;9.55;7.00;;;21.40;70.10;;;;;;4926376;29;20047;-72
2023/06/18 07:09:14;;;;;;;9.90;7.03;;;21.50;70.00;;;;;;4925864;29;20348;-72
2023/06/18 07:11:40;;;;;;;9.75;7.32;;;21.60;69.80;;;;;;4926380;29;20036;-71
2023/06/18 07:14:07;;;;;;;11.13;7.00;;;21.70;69.30;;;;;;4924842;29;20258;-73
2023/06/18 07:16:33;;;;;;;11.57;7.20;;;21.90;69.00;;;;;;4926542;29;20067;-70
2023/06/18 07:18:59;;;;;;;10.30;6.68;;;22.10;68.70;;;;;;4926255;29;20317;-72
2023/06/18 07:21:24;;;;;;;7.30;6.47;;;22.30;68.40;;;;;;4926021;29;20076;-74
2023/06/18 07:23:50;;;;;;;10.18;7.40;;;22.40;67.80;;;;;;4926354;29;20198;-73
2023/06/18 07:26:16;;;;;;;8.88;6.20;;;22.50;67.20;;;;;;4925262;29;20036;-72
2023/06/18 07:28:41;;;;;;;8.23;6.65;;;22.60;67.20;;;;;;4930355;29;20043;-72
2023/06/18 07:31:07;;;;;;;9.05;7.05;;;22.70;67.10;;;;;;4925884;29;20020;-71
2023/06/18 07:33:33;;;;;;;10.55;7.05;;;22.80;66.70;;;;;;4926113;29;20039;-72
2023/06/18 07:35:59;;;;;;;8.88;6.32;;;23.00;66.50;;;;;;4925878;29;20039;-72
2023/06/18 07:38:24;;;;;;;9.20;6.45;;;23.20;65.80;;;;;;4940474;29;20110;-72
2023/06/18 07:40:50;;;;;;;10.10;7.32;;;23.40;65.30;;;;;;4964348;29;20262;-72
2023/06/18 07:43:16;;;;;;;9.38;6.75;;;23.60;65.10;;;;;;4963999;29;20034;-71
2023/06/18 07:45:42;;;;;;;9.30;6.82;;;23.80;64.70;;;;;;4964270;29;20347;-72
2023/06/18 07:48:08;;;;;;;8.05;6.50;;;23.80;64.50;;;;;;4962946;28;20033;-70
2023/06/18 07:50:34;;;;;;;7.88;6.57;;;24.00;63.90;;;;;;4966702;28;20052;-72
2023/06/18 07:53:00;;;;;;;10.65;6.72;;;24.10;63.00;;;;;;4968154;29;20031;-73
2023/06/18 07:55:26;;;;;;;8.50;6.10;;;24.20;62.80;;;;;;4967547;29;20324;-73
2023/06/18 07:57:51;;;;;;;8.65;6.18;;;24.40;62.60;;;;;;4953273;29;20038;-73
2023/06/18 08:00:17;;;;;;;8.95;5.47;;;24.60;61.90;;;;;;4948024;29;20032;-71
2023/06/18 08:02:43;;;;;;;6.75;5.82;;;24.60;61.70;;;;;;4948225;29;20055;-71
2023/06/18 08:05:09;;;;;;;9.75;6.03;;;24.80;60.60;;;;;;4947557;29;20254;-71
2023/06/18 08:07:35;;;;;;;7.13;5.53;;;24.90;60.00;;;;;;4948136;29;20073;-72
2023/06/18 08:10:01;;;;;;;10.20;5.97;;;25.00;59.60;;;;;;4948391;29;20039;-70
2023/06/18 08:12:26;;;;;;;7.15;6.07;;;25.20;59.10;;;;;;4947606;29;20048;-70
2023/06/18 08:14:52;;;;;;;9.98;5.93;;;25.30;58.90;;;;;;4963520;29;20027;-71
2023/06/18 08:17:18;;;;;;;6.80;5.57;;;25.50;59.20;;;;;;4947677;29;20028;-72
2023/06/18 08:19:45;;;;;;;7.68;5.25;;;25.60;58.50;;;;;;4948138;29;20035;-71
2023/06/18 08:22:17;;;;;;;8.02;5.35;;;25.70;58.40;;;;;;4947611;29;20031;-72
2023/06/18 08:24:44;;;;;;;7.25;5.47;;;25.90;58.20;;;;;;4948415;29;20040;-71
2023/06/18 08:27:11;;;;;;;7.40;5.20;;;25.90;57.30;;;;;;4947864;29;20321;-71
2023/06/18 08:29:37;;;;;;;8.63;5.23;;;26.10;57.60;;;;;;4948172;29;20137;-72
2023/06/18 08:32:05;;;;;;;8.88;5.55;;;26.20;56.40;;;;;;4948351;29;20032;-73
2023/06/18 08:34:32;;;;;;;8.02;5.25;;;26.30;56.40;;;;;;4947665;29;20043;-72
2023/06/18 08:36:58;;;;;;;6.68;4.93;;;26.40;55.70;;;;;;4946887;29;20321;-71
2023/06/18 08:39:24;;;;;;;7.72;4.80;;;26.60;53.40;;;;;;4947109;29;20032;-70
2023/06/18 08:41:50;;;;;;;7.28;4.63;;;26.60;53.50;;;;;;4947971;29;20318;-71
2023/06/18 08:44:16;;;;;;;8.88;5.18;;;26.70;51.80;;;;;;4947247;29;20043;-72
2023/06/18 08:46:45;;;;;;;6.43;4.70;;;26.70;52.10;;;;;;4948021;29;20253;-73
2023/06/18 08:49:15;;;;;;;6.80;6.10;;;26.90;51.10;;;;;;4947492;29;20039;-73
2023/06/18 08:51:45;;;;;;;6.78;4.80;;;27.00;50.40;;;;;;4948054;29;20036;-76
2023/06/18 08:54:17;;;;;;;6.05;4.30;;;27.20;50.10;;;;;;4946292;29;20032;-71
2023/06/18 08:56:44;;;;;;;8.00;5.90;;;27.30;49.60;;;;;;4947190;29;20035;-72
2023/06/18 08:59:11;;;;;;;8.87;5.20;;;27.40;49.80;;;;;;4947620;29;20024;-71
2023/06/18 09:01:37;;;;;;;9.57;6.65;;;27.50;50.60;;;;;;4946535;29;20467;-71
2023/06/18 09:04:04;;;;;;;9.48;6.05;;;27.70;50.40;;;;;;4945156;28;20048;-71
2023/06/18 09:06:30;;;;;;;12.85;8.55;;;27.80;49.20;;;;;;4946937;29;20249;-71
2023/06/18 09:09:00;;;;;;;10.10;5.43;;;27.90;48.90;;;;;;4946178;29;20039;-75
2023/06/18 09:11:26;;;;;;;;;;;27.90;48.30;;;;;;4947511;29;20321;-74
2023/06/18 09:13:52;;;;;;;7.32;6.10;;;28.00;48.90;;;;;;4947772;29;19907;-71
2023/06/18 09:16:18;;;;;;;8.82;6.00;;;28.10;48.10;;;;;;4946637;29;20035;-70
2023/06/18 09:18:45;;;;;;;8.48;4.78;;;28.10;47.50;;;;;;4946966;29;20202;-69
2023/06/18 09:21:11;;;;;;;7.30;5.22;;;28.20;47.80;;;;;;4947222;29;20086;-73
2023/06/18 09:23:38;;;;;;;8.05;6.15;;;28.20;48.10;;;;;;4946255;29;20102;-72
2023/06/18 09:26:03;;;;;;;6.30;4.88;;;28.20;48.30;;;;;;4947421;29;20024;-70
2023/06/18 09:28:30;;;;;;;7.13;4.97;;;28.40;47.40;;;;;;4946798;29;20332;-73
2023/06/18 09:31:00;;;;;;;12.32;9.43;;;28.30;47.00;;;;;;4947378;29;20312;-72
2023/06/18 09:33:33;;;;;;;6.30;4.53;;;28.40;46.80;;;;;;4946386;29;20028;-73
2023/06/18 09:36:08;;;;;;;7.07;5.15;;;28.60;46.80;;;;;;4947073;29;20034;-71
2023/06/18 09:38:36;;;;;;;5.65;4.13;;;28.60;46.90;;;;;;4946434;29;20035;-73
2023/06/18 09:41:17;;;;;;;7.25;4.20;;;28.60;45.30;;;;;;4945696;29;20023;-73
2023/06/18 09:43:48;;;;;;;5.82;4.40;;;28.60;45.50;;;;;;4946044;29;20094;-73
2023/06/18 09:46:15;;;;;;;6.68;4.10;;;28.60;45.70;;;;;;4946339;29;20238;-75
2023/06/18 09:48:45;;;;;;;4.70;3.95;;;28.40;45.80;;;;;;4945780;29;20032;-71
2023/06/18 09:51:17;;;;;;;6.18;4.68;;;28.50;46.60;;;;;;4945372;29;20270;-76
2023/06/18 09:53:44;;;;;;;5.90;4.18;;;28.80;46.20;;;;;;4945635;29;20246;-74
2023/06/18 09:56:12;;;;;;;9.00;7.40;;;28.90;45.90;;;;;;4946479;29;20028;-71
2023/06/18 09:58:48;;;;;;;7.53;5.43;;;29.00;46.00;;;;;;4946148;29;20051;-72
2023/06/18 10:01:16;;;;;;;8.23;4.05;;;29.00;45.10;;;;;;4945074;29;20066;-73
2023/06/18 10:03:42;;;;;;;7.90;6.07;;;28.90;45.40;;;;;;4946213;29;20144;-72
2023/06/18 10:06:20;;;;;;;7.15;5.35;;;29.00;45.70;;;;;;4946630;29;20047;-73
2023/06/18 10:08:53;;;;;;;8.38;3.60;;;29.20;45.50;;;;;;4946262;29;20035;-71
2023/06/18 10:11:20;;;;;;;7.57;4.43;;;29.40;45.20;;;;;;4945709;29;20050;-72
2023/06/18 10:13:50;;;;;;;5.60;3.90;;;29.40;45.60;;;;;;4944006;29;20020;-72
2023/06/18 10:16:17;;;;;;;6.07;4.28;;;29.50;45.20;;;;;;4944160;29;20042;-72
2023/06/18 10:19:04;;;;;;;5.97;3.75;;;29.70;46.10;;;;;;4946455;29;20051;-73
2023/06/18 10:21:34;;;;;;;6.50;4.07;;;29.70;44.80;;;;;;4945636;29;20039;-74
2023/06/18 10:24:12;;;;;;;4.82;3.75;;;29.70;44.70;;;;;;4945894;29;20062;-72
2023/06/18 10:26:38;;;;;;;;;;;29.50;45.30;;;;;;4946338;29;20074;-71
2023/06/18 10:29:06;;;;;;;5.60;3.83;;;29.40;44.70;;;;;;4945928;29;19923;-72
2023/06/18 10:31:32;;;;;;;7.28;4.35;;;29.20;44.70;;;;;;4944588;29;20082;-72
2023/06/18 10:33:59;;;;;;;5.55;4.10;;;29.30;45.30;;;;;;4945800;29;20031;-72
2023/06/18 10:36:26;;;;;;;5.72;4.05;;;29.40;45.20;;;;;;4945202;29;20266;-72
2023/06/18 10:38:52;;;;;;;5.50;4.10;;;29.70;45.20;;;;;;4945877;29;20055;-72
2023/06/18 10:41:20;;;;;;;6.57;4.63;;;29.70;45.30;;;;;;4945371;29;20042;-71
2023/06/18 10:43:54;;;;;;;5.60;4.35;;;29.80;44.50;;;;;;4946171;29;20015;-73
2023/06/18 10:46:21;;;;;;;4.97;3.75;;;29.90;44.50;;;;;;4945651;29;20103;-70
2023/06/18 10:49:20;;;;;;;6.13;3.95;;;30.00;43.80;;;;;;4945511;29;20063;-71
2023/06/18 10:51:57;;;;;;;5.10;3.78;;;30.00;44.20;;;;;;4945348;29;20103;-71
2023/06/18 10:54:30;;;;;;;4.95;4.10;;;30.10;43.70;;;;;;4945274;29;20039;-71
2023/06/18 10:56:57;;;;;;;6.85;3.85;;;30.20;44.00;;;;;;4945221;29;20039;-71
2023/06/18 10:59:40;;;;;;;6.50;3.85;;;30.30;43.50;;;;;;4944943;29;20023;-70
2023/06/18 11:02:06;;;;;;;5.63;3.97;;;30.50;43.90;;;;;;4945245;29;20047;-72
2023/06/18 11:04:34;;;;;;;4.97;3.65;;;30.40;43.80;;;;;;4944806;29;20233;-72
2023/06/18 11:07:15;;;;;;;5.75;4.28;;;30.60;44.50;;;;;;4945182;29;20035;-73
2023/06/18 11:10:10;;;;;;;4.78;3.92;;;30.80;44.00;;;;;;4945363;29;20313;-72
2023/06/18 11:12:38;;;;;;;8.25;4.00;;;31.00;43.90;;;;;;4936687;29;20078;-71
2023/06/18 11:15:16;;;;;;;5.30;3.90;;;31.10;43.40;;;;;;4945177;29;20221;-73
2023/06/18 11:17:48;;;;;;;4.97;3.50;;;31.10;43.10;;;;;;4945218;29;20040;-71
2023/06/18 11:20:15;;;;;;;5.90;3.45;;;31.10;43.40;;;;;;4944222;29;20336;-72
2023/06/18 11:22:45;;;;;;;8.95;4.25;;;31.40;43.10;;;;;;4945261;29;20020;-73
2023/06/18 11:25:12;;;;;;;7.05;3.55;;;31.50;43.10;;;;;;4947097;29;20028;-72
2023/06/18 11:27:41;;;;;;;4.35;3.47;;;31.60;42.10;;;;;;4945022;29;20095;-72
2023/06/18 11:30:08;;;;;;;;;;;31.70;40.60;;;;;;4945900;29;20051;-72
2023/06/18 11:32:33;;;;;;;5.55;3.53;;;31.90;41.30;;;;;;4944956;29;20080;-72
2023/06/18 11:35:00;;;;;;;5.00;3.20;;;32.20;41.90;;;;;;4945422;29;20023;-72
2023/06/18 11:37:27;;;;;;;5.07;3.42;;;32.40;42.00;;;;;;4944977;29;20302;-71
2023/06/18 11:39:55;;;;;;;4.43;3.83;;;32.50;42.00;;;;;;4945407;29;20057;-72
2023/06/18 11:42:21;;;;;;;13.85;11.82;;;32.90;41.80;;;;;;4944948;29;20023;-72
2023/06/18 11:44:52;;;;;;;5.50;4.10;;;33.60;42.00;;;;;;4945236;29;20039;-71
2023/06/18 11:47:18;;;;;;;4.90;3.92;;;34.40;41.40;;;;;;4944584;29;20095;-71
2023/06/18 11:49:50;;;;;;;5.38;4.10;;;35.00;41.20;;;;;;4944649;29;20194;-72
2023/06/18 11:52:18;;;;;;;4.18;3.20;;;35.70;40.60;;;;;;4945217;29;20028;-70
2023/06/18 11:54:45;;;;;;;4.13;3.30;;;36.20;39.40;;;;;;4943380;29;20032;-73
2023/06/18 11:57:12;;;;;;;4.50;3.47;;;36.90;39.10;;;;;;4936442;29;20036;-72
2023/06/18 11:59:39;;;;;;;4.45;3.35;;;37.10;38.70;;;;;;4925331;29;20051;-75
2023/06/18 12:02:10;;;;;;;5.15;2.92;;;38.10;38.50;;;;;;4925865;29;20143;-73
2023/06/18 12:04:37;;;;;;;5.20;3.28;;;39.20;38.10;;;;;;4925501;29;20375;-73
2023/06/18 12:07:03;;;;;;;4.25;3.05;;;39.90;37.50;;;;;;4925739;29;20028;-73
2023/06/18 12:09:33;;;;;;;5.35;3.00;;;40.10;36.90;;;;;;4925270;29;20044;-71
2023/06/18 12:12:16;;;;;;;5.43;3.00;;;40.40;37.50;;;;;;4924493;29;20159;-71
2023/06/18 12:15:05;;;;;;;3.58;2.90;;;40.50;36.60;;;;;;4926021;29;20032;-73
2023/06/18 12:17:43;;;;;;;3.33;2.53;;;41.20;36.60;;;;;;4939134;29;20099;-74
2023/06/18 12:20:13;;;;;;;4.32;2.72;;;41.50;36.50;;;;;;4945045;29;20040;-73
2023/06/18 12:22:40;;;;;;;3.97;2.72;;;42.50;36.40;;;;;;4943010;29;20100;-71
2023/06/18 12:25:09;;;;;;;3.25;2.83;;;43.20;36.00;;;;;;4945050;29;20040;-73
2023/06/18 12:27:35;;;;;;;3.65;2.85;;;43.00;35.90;;;;;;4944169;29;20046;-72
2023/06/18 12:30:03;;;;;;;4.72;2.80;;;42.70;35.40;;;;;;4944581;29;20065;-72
2023/06/18 12:32:29;;;;;;;4.55;2.83;;;42.40;35.90;;;;;;4944391;29;20034;-73
2023/06/18 12:34:55;;;;;;;4.25;2.60;;;42.70;35.70;;;;;;4944963;29;20035;-73
2023/06/18 12:37:32;;;;;;;3.10;2.53;;;42.70;35.70;;;;;;4946469;29;20104;-73
2023/06/18 12:40:18;;;;;;;3.92;2.70;;;43.50;35.90;;;;;;4947340;29;20090;-73
2023/06/18 12:42:45;;;;;;;4.57;3.00;;;44.80;35.70;;;;;;4948334;29;20201;-73
2023/06/18 12:45:11;;;;;;;4.13;2.65;;;45.80;35.30;;;;;;4948597;29;20128;-72
2023/06/18 12:47:39;;;;;;;3.10;2.67;;;45.30;34.60;;;;;;4946650;29;20091;-72
2023/06/18 12:50:06;;;;;;;4.35;2.70;;;45.60;35.20;;;;;;4948056;29;20087;-73
2023/06/18 12:52:43;;;;;;;3.25;2.70;;;46.30;34.70;;;;;;4947752;29;20031;-73
2023/06/18 12:55:13;;;;;;;5.28;2.63;;;46.40;34.70;;;;;;4947708;29;20207;-74
2023/06/18 12:57:50;;;;;;;3.30;2.97;;;47.30;34.00;;;;;;4945787;29;20047;-74
2023/06/18 13:00:22;;;;;;;2.58;2.33;;;48.40;34.20;;;;;;4947918;29;20107;-72
2023/06/18 13:02:53;;;;;;;2.90;2.60;;;48.40;34.60;;;;;;4947897;29;20317;-73
2023/06/18 13:05:19;;;;;;;3.35;3.05;;;48.70;33.30;;;;;;4947852;29;20055;-73
2023/06/18 13:07:52;;;;;;;4.32;2.65;;;;;;;;;;4947358;29;20050;-72
2023/06/18 13:10:19;;;;;;;3.65;2.67;;;50.20;32.70;;;;;;4947903;29;20039;-72
2023/06/18 13:12:45;;;;;;;2.75;2.45;;;48.90;32.70;;;;;;4946842;29;20039;-73
2023/06/18 13:15:11;;;;;;;12.60;3.40;;;49.50;32.80;;;;;;4947415;29;20066;-72
2023/06/18 13:17:37;;;;;;;2.88;2.58;;;47.60;33.00;;;;;;4946980;29;20241;-73
2023/06/18 13:20:04;;;;;;;3.25;2.65;;;45.80;33.60;;;;;;4947656;29;20103;-72
2023/06/18 13:22:29;;;;;;;3.28;2.70;;;44.90;33.90;;;;;;4947007;29;20047;-74
2023/06/18 13:24:58;;;;;;;3.22;2.92;;;44.80;33.80;;;;;;4947460;29;20209;-73
2023/06/18 13:27:25;;;;;;;3.00;2.50;;;44.40;34.40;;;;;;4959157;29;20355;-72
2023/06/18 13:29:53;;;;;;;3.58;2.70;;;47.30;33.80;;;;;;4956665;29;20047;-73
2023/06/18 13:32:23;;;;;;;3.80;2.40;;;48.10;33.40;;;;;;4946971;29;20023;-75
2023/06/18 13:34:49;;;;;;;3.28;2.85;;;49.20;33.30;;;;;;4946213;29;20074;-75
2023/06/18 13:37:15;;;;;;;;;;;48.40;32.80;;;;;;4947595;29;20075;-75
2023/06/18 13:39:42;;;;;;;3.80;2.45;;;47.50;33.30;;;;;;4946811;29;19922;-73
2023/06/18 13:42:07;;;;;;;;;;;47.80;33.70;;;;;;4947868;29;20305;-74
2023/06/18 13:44:33;;;;;;;4.72;2.65;;;49.00;33.20;;;;;;4946772;29;19910;-72
2023/06/18 13:46:59;;;;;;;4.10;2.97;;;49.20;32.80;;;;;;4946896;29;20027;-71
2023/06/18 13:49:24;;;;;;;3.70;3.20;;;47.50;33.10;;;;;;4946562;29;20039;-72
2023/06/18 13:51:50;;;;;;;6.17;3.23;;;46.70;33.40;;;;;;4947207;29;20059;-73
2023/06/18 13:54:16;;;;;;;4.23;2.97;;;46.00;33.80;;;;;;4946422;29;20075;-73
2023/06/18 13:56:42;;;;;;;2.97;2.63;;;44.20;34.10;;;;;;4941156;29;20028;-72
2023/06/18 13:59:07;;;;;;;4.97;3.15;;;43.00;34.80;;;;;;4927521;29;20349;-73
2023/06/18 14:01:33;;;;;;;4.40;2.70;;;42.30;35.30;;;;;;4926949;29;20036;-72
2023/06/18 14:03:59;;;;;;;5.38;3.00;;;42.30;35.10;;;;;;4927897;29;20099;-73
2023/06/18 14:06:24;;;;;;;4.65;2.92;;;42.50;35.60;;;;;;4927114;29;20095;-72
2023/06/18 14:08:53;;;;;;;4.45;3.38;;;43.30;35.20;;;;;;4927864;29;20099;-72
2023/06/18 14:11:19;;;;;;;3.83;3.05;;;43.60;35.90;;;;;;4927750;29;20067;-72
2023/06/18 14:13:45;;;;;;;5.18;3.42;;;44.00;34.70;;;;;;4927195;29;20024;-71
2023/06/18 14:16:10;;;;;;;3.38;2.90;;;42.90;34.80;;;;;;4930502;29;20086;-76
2023/06/18 14:18:36;;;;;;;4.65;2.90;;;42.60;34.80;;;;;;4946149;29;20036;-73
2023/06/18 14:21:02;;;;;;;4.45;3.00;;;43.10;35.10;;;;;;4946206;29;20226;-72
2023/06/18 14:23:28;;;;;;;3.05;2.60;;;43.50;34.50;;;;;;4946004;29;20051;-73
2023/06/18 14:25:54;;;;;;;4.07;2.47;;;45.30;35.00;;;;;;4946574;29;20316;-73
2023/06/18 14:28:20;;;;;;;3.65;2.80;;;47.70;33.90;;;;;;4946363;29;20083;-74
2023/06/18 14:30:46;;;;;;;3.88;3.03;;;47.80;33.10;;;;;;4945941;29;20027;-72
2023/06/18 14:33:12;;;;;;;3.53;2.67;;;47.50;33.70;;;;;;4946333;29;20039;-74
2023/06/18 14:35:38;;;;;;;2.70;2.30;;;47.30;33.70;;;;;;4944271;29;20024;-73
2023/06/18 14:38:03;;;;;;;4.13;2.97;;;46.90;33.70;;;;;;4946417;29;20071;-72
2023/06/18 14:40:29;;;;;;;3.47;2.73;;;48.20;33.70;;;;;;4945684;29;20099;-73
2023/06/18 14:42:55;;;;;;;3.57;2.90;;;49.40;33.30;;;;;;4946152;29;20046;-74
2023/06/18 14:45:20;;;;;;;4.20;2.90;;;50.20;32.90;;;;;;4945657;29;20024;-72
2023/06/18 14:47:46;;;;;;;3.90;2.57;;;48.30;32.90;;;;;;4945629;29;20043;-74
2023/06/18 14:50:14;;;;;;;4.30;3.37;;;47.40;33.40;;;;;;4945764;29;20043;-70
2023/06/18 14:52:40;;;;;;;3.95;2.70;;;45.90;33.70;;;;;;4944070;29;20039;-74
2023/06/18 14:55:06;;;;;;;4.53;3.20;;;44.60;34.10;;;;;;4945739;29;20035;-72
2023/06/18 14:57:31;;;;;;;4.13;3.25;;;43.60;35.20;;;;;;4945173;29;20438;-71
2023/06/18 14:59:57;;;;;;;4.60;3.20;;;43.00;35.00;;;;;;4944863;29;20143;-71
2023/06/18 15:02:23;;;;;;;3.67;2.97;;;42.90;35.30;;;;;;4945322;29;20051;-71
2023/06/18 15:04:53;;;;;;;5.28;3.03;;;43.20;35.90;;;;;;4945569;29;20031;-72
2023/06/18 15:07:19;;;;;;;6.78;3.60;;;44.00;35.80;;;;;;4946750;29;20098;-71
2023/06/18 15:09:46;;;;;;;4.28;3.38;;;43.60;35.40;;;;;;4946464;29;20058;-70
2023/06/18 15:12:12;;;;;;;4.75;4.18;;;43.30;35.30;;;;;;4945744;29;20035;-73
2023/06/18 15:14:40;;;;;;;3.90;3.40;;;41.90;35.60;;;;;;4945076;29;20034;-72
2023/06/18 15:17:06;;;;;;;4.97;3.35;;;40.70;36.20;;;;;;4945590;29;20055;-74
2023/06/18 15:19:32;;;;;;;4.43;3.45;;;40.90;36.90;;;;;;4944859;29;20039;-74
2023/06/18 15:21:57;;;;;;;4.43;3.05;;;40.90;36.50;;;;;;4945711;29;20054;-75
2023/06/18 15:24:23;;;;;;;5.25;3.38;;;42.10;36.20;;;;;;4945106;29;20024;-73
2023/06/18 15:26:49;;;;;;;5.10;3.47;;;42.50;35.80;;;;;;4945076;29;20063;-75
2023/06/18 15:29:15;;;;;;;4.10;3.20;;;43.30;35.80;;;;;;4945466;29;20039;-75
2023/06/18 15:31:42;;;;;;;5.47;4.40;;;45.00;35.30;;;;;;4944567;29;20048;-75
2023/06/18 15:34:09;;;;;;;7.55;3.83;;;45.50;34.70;;;;;;4945072;29;20812;-73
2023/06/18 15:36:35;;;;;;;5.18;3.45;;;45.90;34.60;;;;;;4944708;29;20035;-74
2023/06/18 15:39:02;;;;;;;4.82;3.67;;;45.70;35.30;;;;;;4945335;29;20316;-74
2023/06/18 15:41:28;;;;;;;;;;;45.80;35.00;;;;;;4946040;29;20055;-74
2023/06/18 15:43:53;;;;;;;4.10;3.47;;;46.30;34.40;;;;;;4944770;29;19902;-75
2023/06/18 15:46:20;;;;;;;4.03;3.37;;;45.70;34.40;;;;;;4945323;29;20051;-76
2023/06/18 15:48:49;;;;;;;4.47;3.60;;;46.60;34.90;;;;;;4944801;29;20032;-74
2023/06/18 15:51:15;;;;;;;6.15;5.05;;;46.80;34.70;;;;;;4928070;29;20027;-74
2023/06/18 15:53:43;;;;;;;4.83;4.33;;;47.30;34.60;;;;;;4944462;29;20035;-75
2023/06/18 15:56:35;;;;;;;4.10;3.60;;;46.40;34.10;;;;;;4944173;29;20028;-77
2023/06/18 15:59:01;;;;;;;4.72;3.60;;;45.80;34.40;;;;;;4924771;29;20052;-77
2023/06/18 16:01:26;;;;;;;7.35;4.13;;;45.20;35.00;;;;;;4925654;29;20067;-76
2023/06/18 16:03:52;;;;;;;5.38;3.63;;;44.60;35.00;;;;;;4925690;29;20048;-73
2023/06/18 16:06:18;;;;;;;5.50;4.10;;;42.80;35.50;;;;;;4926000;29;20031;-73
2023/06/18 16:08:44;;;;;;;4.63;4.03;;;42.30;36.10;;;;;;4925854;29;20043;-73
2023/06/18 16:11:10;;;;;;;4.50;4.10;;;40.90;36.80;;;;;;4928271;29;20055;-75
2023/06/18 16:13:36;;;;;;;5.43;4.20;;;40.00;37.60;;;;;;4928510;29;20138;-73
2023/06/18 16:16:01;;;;;;;4.88;4.32;;;38.90;38.40;;;;;;4931129;29;20035;-73
2023/06/18 16:18:27;;;;;;;5.28;4.57;;;38.40;39.30;;;;;;4948548;29;20050;-73
2023/06/18 16:20:53;;;;;;;6.13;4.72;;;38.00;38.90;;;;;;4947873;29;20055;-73
2023/06/18 16:23:18;;;;;;;4.55;3.90;;;37.90;39.30;;;;;;4947295;29;20081;-72
2023/06/18 16:25:44;;;;;;;6.43;4.20;;;37.60;39.10;;;;;;4947759;29;20031;-73
2023/06/18 16:28:10;;;;;;;6.85;4.40;;;37.50;39.70;;;;;;4948135;29;20038;-73
2023/06/18 16:30:36;;;;;;;5.80;4.50;;;37.10;39.80;;;;;;4947607;29;20054;-75
2023/06/18 16:33:01;;;;;;;5.95;4.45;;;36.70;40.00;;;;;;4947360;29;20039;-75
2023/06/18 16:35:28;;;;;;;5.70;4.70;;;36.60;40.40;;;;;;4948763;29;20023;-74
2023/06/18 16:37:54;;;;;;;6.38;4.72;;;36.40;40.50;;;;;;4948276;29;20046;-74
2023/06/18 16:40:21;;;;;;;6.25;4.65;;;36.40;40.60;;;;;;4947960;29;20049;-74
2023/06/18 16:42:47;;;;;;;7.25;4.32;;;36.40;40.60;;;;;;4947687;29;20043;-75
2023/06/18 16:45:13;;;;;;;6.05;4.70;;;36.60;40.40;;;;;;4948348;29;20332;-72
2023/06/18 16:47:38;;;;;;;5.28;4.78;;;36.50;40.70;;;;;;4947652;29;20051;-74
2023/06/18 16:50:06;;;;;;;;;;;36.50;40.70;;;;;;4948235;29;20102;-72
2023/06/18 16:52:32;;;;;;;6.30;4.70;;;36.80;40.80;;;;;;4946936;29;20203;-73
2023/06/18 16:54:58;;;;;;;6.15;4.82;;;37.20;40.40;;;;;;4946442;29;20071;-74
2023/06/18 16:57:24;;;;;;;5.93;5.03;;;37.20;40.00;;;;;;4947231;29;20167;-72
2023/06/18 16:59:50;;;;;;;6.00;4.65;;;37.50;40.20;;;;;;4946958;29;20035;-73
2023/06/18 17:02:15;;;;;;;6.22;4.60;;;37.80;40.20;;;;;;4947470;29;20055;-73
2023/06/18 17:04:41;;;;;;;5.28;4.60;;;38.50;39.80;;;;;;4947396;29;20090;-72
2023/06/18 17:07:07;;;;;;;5.70;4.53;;;39.60;39.40;;;;;;4947540;29;20075;-76
2023/06/18 17:09:36;;;;;;;5.90;4.55;;;40.50;39.20;;;;;;4947832;29;20222;-75
2023/06/18 17:12:02;;;;;;;5.80;4.72;;;40.60;38.20;;;;;;4947910;29;20035;-75
2023/06/18 17:14:27;;;;;;;5.38;4.50;;;40.40;38.20;;;;;;4947721;29;20348;-73
2023/06/18 17:16:57;;;;;;;6.43;4.65;;;41.10;38.20;;;;;;4946911;29;20043;-72
2023/06/18 17:19:25;;;;;;;6.20;4.68;;;41.40;38.10;;;;;;4947435;29;20218;-72
2023/06/18 17:21:54;;;;;;;12.10;5.65;;;41.80;37.60;;;;;;4946409;29;20035;-76
2023/06/18 17:24:19;;;;;;;40.45;15.70;;;42.50;37.30;;;;;;4947324;29;20035;-72
2023/06/18 17:26:45;;;;;;;52.58;23.65;;;42.90;37.20;;;;;;4946604;29;20214;-72
2023/06/18 17:29:11;;;;;;;10.60;7.10;;;42.80;37.30;;;;;;4943354;29;20315;-73
2023/06/18 17:31:36;;;;;;;5.78;4.72;;;42.90;37.00;;;;;;4927740;29;20035;-72
2023/06/18 17:34:04;;;;;;;18.33;9.60;;;42.20;37.10;;;;;;4930534;29;20055;-76
2023/06/18 17:36:30;;;;;;;5.80;4.95;;;41.90;37.50;;;;;;4947215;29;20035;-74
2023/06/18 17:38:56;;;;;;;6.78;5.10;;;41.00;37.80;;;;;;4945637;29;20063;-72
2023/06/18 17:41:21;;;;;;;6.00;4.80;;;40.60;37.80;;;;;;4947266;29;20087;-75
2023/06/18 17:43:47;;;;;;;6.85;4.95;;;39.90;38.50;;;;;;4947028;29;20221;-72
2023/06/18 17:46:14;;;;;;;6.30;4.82;;;39.10;38.60;;;;;;4946102;29;20054;-72
2023/06/18 17:48:45;;;;;;;7.93;5.40;;;38.40;39.50;;;;;;4946806;29;20091;-72